createdAt,value
2023-03-26T00:00:28.656Z,65.42
2023-03-26T00:01:28.623Z,67.26
2023-03-26T00:02:28.736Z,62.99
2023-03-26T00:03:28.587Z,66.03
2023-03-26T00:04:28.555Z,69.80
2023-03-26T00:05:28.590Z,61.13
2023-03-26T00:06:28.539Z,69.44
2023-03-26T00:07:28.530Z,71.90
2023-03-26T00:08:28.555Z,66.37
2023-03-26T00:09:28.533Z,66.08
2023-03-26T00:10:28.513Z,67.51
2023-03-26T00:11:28.472Z,66.39
2023-03-26T00:12:28.518Z,58.52
2023-03-26T00:13:28.467Z,62.25
2023-03-26T00:14:28.463Z,66.40
2023-03-26T00:15:28.491Z,65.53
2023-03-26T00:16:28.486Z,62.14
2023-03-26T00:17:29.530Z,59.84
2023-03-26T00:18:28.511Z,62.51
2023-03-26T00:19:28.427Z,57.95
2023-03-26T00:20:28.530Z,66.02
2023-03-26T00:21:28.497Z,65.98
2023-03-26T00:22:28.403Z,67.38
2023-03-26T00:23:28.386Z,63.80
2023-03-26T00:24:28.429Z,65.31
2023-03-26T00:25:28.405Z,62.66
2023-03-26T00:26:28.328Z,62.70
2023-03-26T00:27:28.364Z,61.84
2023-03-26T00:28:28.427Z,61.49
2023-03-26T00:29:28.352Z,62.22
2023-03-26T00:30:28.353Z,66.43
2023-03-26T00:31:28.336Z,67.56
2023-03-26T00:32:28.351Z,65.30
2023-03-26T00:33:28.333Z,61.31
2023-03-26T00:34:28.267Z,48.65
2023-03-26T00:35:28.232Z,64.97
2023-03-26T00:36:28.306Z,66.57
2023-03-26T00:37:28.294Z,67.79
2023-03-26T00:38:28.858Z,64.95
2023-03-26T00:39:28.254Z,65.40
2023-03-26T00:40:28.225Z,65.21
2023-03-26T00:41:28.203Z,68.28
2023-03-26T00:42:28.199Z,68.45
2023-03-26T00:43:28.139Z,63.02
2023-03-26T00:44:28.139Z,65.16
2023-03-26T00:45:28.141Z,65.78
2023-03-26T00:46:28.195Z,62.67
2023-03-26T00:47:28.146Z,59.65
2023-03-26T00:48:41.855Z,56.93
2023-03-26T00:49:30.096Z,62.14
2023-03-26T00:50:28.103Z,67.16
2023-03-26T00:51:28.131Z,57.22
2023-03-26T00:52:28.042Z,67.75
2023-03-26T00:53:28.124Z,63.53
2023-03-26T00:54:28.053Z,59.38
2023-03-26T00:55:28.052Z,64.63
2023-03-26T00:56:27.981Z,65.08
2023-03-26T00:57:35.407Z,58.52
2023-03-26T00:58:30.018Z,63.51
2023-03-26T00:59:28.009Z,66.83
2023-03-26T01:00:28.057Z,63.24
2023-03-26T01:01:28.917Z,50.31
2023-03-26T01:02:28.482Z,57.89
2023-03-26T01:03:28.386Z,61.60
2023-03-26T01:04:29.121Z,58.39
2023-03-26T01:05:27.953Z,65.65
2023-03-26T01:06:27.966Z,62.43
2023-03-26T01:07:27.924Z,57.18
2023-03-26T01:08:27.935Z,55.40
2023-03-26T01:09:27.920Z,55.35
2023-03-26T01:10:27.907Z,64.88
2023-03-26T01:11:27.855Z,54.53
2023-03-26T01:12:27.896Z,59.63
2023-03-26T01:13:27.883Z,63.68
2023-03-26T01:14:27.841Z,63.61
2023-03-26T01:15:27.859Z,56.51
2023-03-26T01:16:27.811Z,65.07
2023-03-26T01:17:27.869Z,55.40
2023-03-26T01:18:27.812Z,63.85
2023-03-26T01:19:27.799Z,52.43
2023-03-26T01:20:27.865Z,60.70
2023-03-26T01:21:27.751Z,51.46
2023-03-26T01:22:27.782Z,64.31
2023-03-26T01:23:27.751Z,62.65
2023-03-26T01:24:27.750Z,55.89
2023-03-26T01:25:27.749Z,59.99
2023-03-26T01:26:27.823Z,61.21
2023-03-26T01:27:27.706Z,64.35
2023-03-26T01:28:27.699Z,61.61
2023-03-26T01:29:27.670Z,64.01
2023-03-26T01:30:27.658Z,59.34
2023-03-26T01:31:27.673Z,65.01
2023-03-26T01:32:27.739Z,60.20
2023-03-26T01:33:27.707Z,59.46
2023-03-26T01:34:27.739Z,54.73
2023-03-26T01:35:27.634Z,65.35
2023-03-26T01:36:27.546Z,67.08
2023-03-26T01:37:27.753Z,66.60
2023-03-26T01:38:27.534Z,56.78
2023-03-26T01:39:27.621Z,69.79
2023-03-26T01:40:27.504Z,65.14
2023-03-26T01:41:27.543Z,61.48
2023-03-26T01:42:27.469Z,60.50
2023-03-26T01:43:27.510Z,63.13
2023-03-26T01:44:27.523Z,58.96
2023-03-26T01:45:27.474Z,58.12
2023-03-26T01:46:27.547Z,56.50
2023-03-26T01:47:27.441Z,68.77
2023-03-26T01:48:28.431Z,55.72
2023-03-26T01:49:27.449Z,65.78
2023-03-26T01:50:27.417Z,63.83
2023-03-26T01:51:27.453Z,61.09
2023-03-26T01:52:27.413Z,62.82
2023-03-26T01:53:28.375Z,64.71
2023-03-26T01:54:27.434Z,49.27
2023-03-26T01:55:27.342Z,66.09
2023-03-26T01:56:27.324Z,61.82
2023-03-26T01:57:27.390Z,68.04
2023-03-26T01:58:27.329Z,61.32
2023-03-26T01:59:27.366Z,57.81
2023-03-26T02:00:27.381Z,56.70
2023-03-26T02:01:27.386Z,64.24
2023-03-26T02:02:27.409Z,62.12
2023-03-26T02:03:27.439Z,63.44
2023-03-26T02:04:27.298Z,66.45
2023-03-26T02:05:27.299Z,54.79
2023-03-26T02:06:27.297Z,58.89
2023-03-26T02:07:27.296Z,59.42
2023-03-26T02:08:27.229Z,62.41
2023-03-26T02:09:27.273Z,50.61
2023-03-26T02:10:27.219Z,66.30
2023-03-26T02:11:34.739Z,62.90
2023-03-26T02:12:29.269Z,67.92
2023-03-26T02:13:27.256Z,60.62
2023-03-26T02:14:27.258Z,60.04
2023-03-26T02:15:27.205Z,61.37
2023-03-26T02:16:27.193Z,50.14
2023-03-26T02:17:27.204Z,59.11
2023-03-26T02:18:27.136Z,57.71
2023-03-26T02:19:27.143Z,65.49
2023-03-26T02:20:27.128Z,56.34
2023-03-26T02:21:27.172Z,66.94
2023-03-26T02:22:27.189Z,63.40
2023-03-26T02:23:27.143Z,64.66
2023-03-26T02:24:27.093Z,61.23
2023-03-26T02:25:27.106Z,53.22
2023-03-26T02:26:27.056Z,68.76
2023-03-26T02:27:27.011Z,65.93
2023-03-26T02:28:27.081Z,64.29
2023-03-26T02:29:27.020Z,65.73
2023-03-26T02:30:27.007Z,65.80
2023-03-26T02:31:27.048Z,58.24
2023-03-26T02:32:29.168Z,54.86
2023-03-26T02:33:27.011Z,52.60
2023-03-26T02:34:26.994Z,55.56
2023-03-26T02:35:27.024Z,58.76
2023-03-26T02:36:27.018Z,63.98
2023-03-26T02:37:26.999Z,52.52
2023-03-26T02:38:26.936Z,60.81
2023-03-26T02:39:26.889Z,62.79
2023-03-26T02:40:26.923Z,55.16
2023-03-26T02:41:26.907Z,59.74
2023-03-26T02:42:26.923Z,61.03
2023-03-26T02:43:26.964Z,53.53
2023-03-26T02:44:26.816Z,55.95
2023-03-26T02:45:26.943Z,53.03
2023-03-26T02:46:26.925Z,66.80
2023-03-26T02:47:26.923Z,56.76
2023-03-26T02:48:27.719Z,64.87
2023-03-26T02:49:26.778Z,66.11
2023-03-26T02:50:26.783Z,60.87
2023-03-26T02:51:26.777Z,55.37
2023-03-26T02:52:26.788Z,60.77
2023-03-26T02:53:26.739Z,50.10
2023-03-26T02:54:27.386Z,60.20
2023-03-26T02:55:26.699Z,54.05
2023-03-26T02:56:26.733Z,51.96
2023-03-26T02:57:26.714Z,57.13
2023-03-26T02:58:26.726Z,67.05
2023-03-26T02:59:26.679Z,68.20
2023-03-26T03:00:27.703Z,62.54
2023-03-26T03:01:26.782Z,66.89
2023-03-26T03:02:26.672Z,61.44
2023-03-26T03:03:26.668Z,62.83
2023-03-26T03:04:26.662Z,54.00
2023-03-26T03:05:26.789Z,62.63
2023-03-26T03:06:26.649Z,64.64
2023-03-26T03:07:26.648Z,67.87
2023-03-26T03:08:26.606Z,59.64
2023-03-26T03:09:26.634Z,61.45
2023-03-26T03:10:26.577Z,57.82
2023-03-26T03:11:26.609Z,58.29
2023-03-26T03:12:26.555Z,62.67
2023-03-26T03:13:26.584Z,67.65
2023-03-26T03:14:26.553Z,65.21
2023-03-26T03:15:26.562Z,65.19
2023-03-26T03:16:26.596Z,65.43
2023-03-26T03:17:26.483Z,59.69
2023-03-26T03:18:26.492Z,61.47
2023-03-26T03:19:26.497Z,59.02
2023-03-26T03:20:26.509Z,63.79
2023-03-26T03:21:26.456Z,66.33
2023-03-26T03:22:26.592Z,57.41
2023-03-26T03:23:26.534Z,63.37
2023-03-26T03:24:26.666Z,64.98
2023-03-26T03:25:27.384Z,62.16
2023-03-26T03:26:26.453Z,61.58
2023-03-26T03:27:26.460Z,63.97
2023-03-26T03:28:26.436Z,65.82
2023-03-26T03:29:26.570Z,61.50
2023-03-26T03:30:26.389Z,60.72
2023-03-26T03:31:26.475Z,66.73
2023-03-26T03:32:26.338Z,66.51
2023-03-26T03:33:26.318Z,62.38
2023-03-26T03:34:26.351Z,65.85
2023-03-26T03:35:26.345Z,64.27
2023-03-26T03:36:26.347Z,57.15
2023-03-26T03:37:26.261Z,67.72
2023-03-26T03:38:26.276Z,61.35
2023-03-26T03:39:26.242Z,69.29
2023-03-26T03:40:26.283Z,64.90
2023-03-26T03:41:26.269Z,66.31
2023-03-26T03:42:26.260Z,62.80
2023-03-26T03:43:26.269Z,62.95
2023-03-26T03:44:26.254Z,63.54
2023-03-26T03:45:26.255Z,69.51
2023-03-26T03:46:26.224Z,64.48
2023-03-26T03:47:26.266Z,66.49
2023-03-26T03:48:26.188Z,68.59
2023-03-26T03:49:26.184Z,59.22
2023-03-26T03:50:26.174Z,57.99
2023-03-26T03:51:26.159Z,67.56
2023-03-26T03:52:26.121Z,64.23
2023-03-26T03:53:26.223Z,68.39
2023-03-26T03:54:26.152Z,60.29
2023-03-26T03:55:26.102Z,67.94
2023-03-26T03:56:26.160Z,64.91
2023-03-26T03:57:26.086Z,67.74
2023-03-26T03:58:27.124Z,58.93
2023-03-26T03:59:26.158Z,61.06
2023-03-26T04:00:26.012Z,64.08
2023-03-26T04:01:26.001Z,65.40
2023-03-26T04:02:26.408Z,66.41
2023-03-26T04:03:34.124Z,51.83
2023-03-26T04:04:27.059Z,62.74
2023-03-26T04:05:26.105Z,60.31
2023-03-26T04:06:25.981Z,66.74
2023-03-26T04:07:26.037Z,65.78
2023-03-26T04:08:26.017Z,61.98
2023-03-26T04:09:25.994Z,60.20
2023-03-26T04:10:26.060Z,63.74
2023-03-26T04:11:25.914Z,64.25
2023-03-26T04:12:25.991Z,66.35
2023-03-26T04:13:26.019Z,64.28
2023-03-26T04:14:25.845Z,60.96
2023-03-26T04:15:25.979Z,64.39
2023-03-26T04:16:25.944Z,66.23
2023-03-26T04:17:25.945Z,65.82
2023-03-26T04:18:25.891Z,59.76
2023-03-26T04:19:26.137Z,64.85
2023-03-26T04:20:25.844Z,63.40
2023-03-26T04:21:25.830Z,62.38
2023-03-26T04:22:25.861Z,65.83
2023-03-26T04:23:25.801Z,54.39
2023-03-26T04:24:25.748Z,64.26
2023-03-26T04:25:25.766Z,65.58
2023-03-26T04:26:25.791Z,68.67
2023-03-26T04:27:25.802Z,61.68
2023-03-26T04:28:25.697Z,64.42
2023-03-26T04:29:25.851Z,64.11
2023-03-26T04:30:25.739Z,65.47
2023-03-26T04:31:25.751Z,68.18
2023-03-26T04:32:25.768Z,66.26
2023-03-26T04:33:25.733Z,66.12
2023-03-26T04:34:25.717Z,64.70
2023-03-26T04:35:25.740Z,71.85
2023-03-26T04:36:25.799Z,67.87
2023-03-26T04:37:25.707Z,65.44
2023-03-26T04:38:25.758Z,66.41
2023-03-26T04:39:25.742Z,68.49
2023-03-26T04:40:25.584Z,66.31
2023-03-26T04:41:25.677Z,65.41
2023-03-26T04:42:25.632Z,69.53
2023-03-26T04:43:25.574Z,64.12
2023-03-26T04:44:25.553Z,64.66
2023-03-26T04:45:25.573Z,66.27
2023-03-26T04:46:25.645Z,62.20
2023-03-26T04:47:25.561Z,66.58
2023-03-26T04:48:25.617Z,70.60
2023-03-26T04:49:25.537Z,68.21
2023-03-26T04:50:25.491Z,72.54
2023-03-26T04:51:25.585Z,63.70
2023-03-26T04:52:25.507Z,67.25
2023-03-26T04:53:25.451Z,62.07
2023-03-26T04:54:26.361Z,68.76
2023-03-26T04:55:25.758Z,67.24
2023-03-26T04:56:25.434Z,65.18
2023-03-26T04:57:25.496Z,64.92
2023-03-26T04:58:25.419Z,60.84
2023-03-26T04:59:25.473Z,62.84
2023-03-26T05:00:25.399Z,63.40
2023-03-26T05:01:25.538Z,66.20
2023-03-26T05:02:25.481Z,68.87
2023-03-26T05:03:25.374Z,64.04
2023-03-26T05:04:25.442Z,67.42
2023-03-26T05:05:25.400Z,71.43
2023-03-26T05:06:25.346Z,62.65
2023-03-26T05:07:25.367Z,63.21
2023-03-26T05:08:25.322Z,66.15
2023-03-26T05:09:25.259Z,67.16
2023-03-26T05:10:25.269Z,71.01
2023-03-26T05:11:25.250Z,63.74
2023-03-26T05:12:25.243Z,64.72
2023-03-26T05:13:25.232Z,63.58
2023-03-26T05:14:25.225Z,63.14
2023-03-26T05:15:25.288Z,55.83
2023-03-26T05:16:25.251Z,63.82
2023-03-26T05:17:25.189Z,63.41
2023-03-26T05:18:25.193Z,66.69
2023-03-26T05:19:25.293Z,65.93
2023-03-26T05:20:25.163Z,65.54
2023-03-26T05:21:25.343Z,64.83
2023-03-26T05:22:25.335Z,64.54
2023-03-26T05:23:25.274Z,65.29
2023-03-26T05:24:25.551Z,68.74
2023-03-26T05:25:25.266Z,67.60
2023-03-26T05:26:25.189Z,71.49
2023-03-26T05:27:25.236Z,67.62
2023-03-26T05:28:25.165Z,63.20
2023-03-26T05:29:25.110Z,65.84
2023-03-26T05:30:25.136Z,64.29
2023-03-26T05:31:25.132Z,62.87
2023-03-26T05:32:25.137Z,67.60
2023-03-26T05:33:25.175Z,68.89
2023-03-26T05:34:25.169Z,66.43
2023-03-26T05:35:25.078Z,67.65
2023-03-26T05:36:25.101Z,67.23
2023-03-26T05:37:25.186Z,67.45
2023-03-26T05:38:25.244Z,69.17
2023-03-26T05:39:25.070Z,62.50
2023-03-26T05:40:25.283Z,68.49
2023-03-26T05:41:25.163Z,52.99
2023-03-26T05:42:25.079Z,62.76
2023-03-26T05:43:25.048Z,67.80
2023-03-26T05:44:25.044Z,67.85
2023-03-26T05:45:24.951Z,61.73
2023-03-26T05:46:25.008Z,70.75
2023-03-26T05:47:25.203Z,65.28
2023-03-26T05:48:24.913Z,64.80
2023-03-26T05:49:24.990Z,63.71
2023-03-26T05:50:25.037Z,71.95
2023-03-26T05:51:24.954Z,66.73
2023-03-26T05:52:24.829Z,68.45
2023-03-26T05:53:25.242Z,63.47
2023-03-26T05:54:24.957Z,57.13
2023-03-26T05:55:25.232Z,67.85
2023-03-26T05:56:24.996Z,70.05
2023-03-26T05:57:25.110Z,63.61
2023-03-26T05:58:24.876Z,67.07
2023-03-26T05:59:24.864Z,66.70
2023-03-26T06:00:25.107Z,65.19
2023-03-26T06:01:25.022Z,68.31
2023-03-26T06:02:25.191Z,69.23
2023-03-26T06:03:25.213Z,67.00
2023-03-26T06:04:25.010Z,69.04
2023-03-26T06:05:24.964Z,66.71
2023-03-26T06:06:24.934Z,72.01
2023-03-26T06:07:24.985Z,66.31
2023-03-26T06:08:25.032Z,66.79
2023-03-26T06:09:24.948Z,69.95
2023-03-26T06:10:25.050Z,67.38
2023-03-26T06:11:24.900Z,70.23
2023-03-26T06:12:24.796Z,70.57
2023-03-26T06:13:24.974Z,67.53
2023-03-26T06:14:24.916Z,71.09
2023-03-26T06:15:24.853Z,65.34
2023-03-26T06:16:27.232Z,66.61
2023-03-26T06:17:24.728Z,67.92
2023-03-26T06:18:24.925Z,66.85
2023-03-26T06:19:24.953Z,69.60
2023-03-26T06:20:24.756Z,70.66
2023-03-26T06:21:24.667Z,67.35
2023-03-26T06:22:25.007Z,67.22
2023-03-26T06:23:24.932Z,68.31
2023-03-26T06:24:25.326Z,70.90
2023-03-26T06:25:24.655Z,68.83
2023-03-26T06:26:25.787Z,70.50
2023-03-26T06:27:24.717Z,68.46
2023-03-26T06:28:24.712Z,64.17
2023-03-26T06:29:25.077Z,70.89
2023-03-26T06:30:24.710Z,64.08
2023-03-26T06:31:25.115Z,67.81
2023-03-26T06:32:24.833Z,68.17
2023-03-26T06:33:24.708Z,69.38
2023-03-26T06:34:25.112Z,69.53
2023-03-26T06:35:24.737Z,71.28
2023-03-26T06:36:24.747Z,69.72
2023-03-26T06:37:24.684Z,69.52
2023-03-26T06:38:24.735Z,70.24
2023-03-26T06:39:24.589Z,72.73
2023-03-26T06:40:24.831Z,72.71
2023-03-26T06:41:25.029Z,72.40
2023-03-26T06:43:08.174Z,68.27
2023-03-26T06:43:25.925Z,72.28
2023-03-26T06:44:24.969Z,69.36
2023-03-26T06:45:24.635Z,72.27
2023-03-26T06:46:24.634Z,71.63
2023-03-26T06:47:24.702Z,70.94
2023-03-26T06:48:24.509Z,70.68
2023-03-26T06:49:24.781Z,69.77
2023-03-26T06:50:25.932Z,67.46
2023-03-26T06:51:24.551Z,72.61
2023-03-26T06:52:24.787Z,72.42
2023-03-26T06:53:24.292Z,68.62
2023-03-26T06:54:24.403Z,68.57
2023-03-26T06:55:24.796Z,68.86
2023-03-26T06:56:24.120Z,68.31
2023-03-26T06:57:24.169Z,71.38
2023-03-26T06:58:24.081Z,69.51
2023-03-26T06:59:24.096Z,66.78
2023-03-26T07:00:24.176Z,67.48
2023-03-26T07:01:24.115Z,72.47
2023-03-26T07:02:24.086Z,71.40
2023-03-26T07:03:24.074Z,71.82
2023-03-26T07:04:24.718Z,69.06
2023-03-26T07:05:23.985Z,68.57
2023-03-26T07:06:24.188Z,70.98
2023-03-26T07:07:24.023Z,71.13
2023-03-26T07:08:25.885Z,72.04
2023-03-26T07:09:24.977Z,68.54
2023-03-26T07:10:24.036Z,70.80
2023-03-26T07:11:23.988Z,70.06
2023-03-26T07:12:23.970Z,63.90
2023-03-26T07:13:23.965Z,65.47
2023-03-26T07:14:23.950Z,72.72
2023-03-26T07:15:24.128Z,70.02
2023-03-26T07:16:23.948Z,69.20
2023-03-26T07:17:23.891Z,69.22
2023-03-26T07:18:23.890Z,70.16
2023-03-26T07:19:23.926Z,67.83
2023-03-26T07:20:23.933Z,70.60
2023-03-26T07:21:23.889Z,73.96
2023-03-26T07:22:23.882Z,71.97
2023-03-26T07:23:23.868Z,70.49
2023-03-26T07:24:23.859Z,69.47
2023-03-26T07:25:23.826Z,70.31
2023-03-26T07:26:23.844Z,72.70
2023-03-26T07:27:23.833Z,72.94
2023-03-26T07:28:23.802Z,71.83
2023-03-26T07:29:23.786Z,71.79
2023-03-26T07:30:23.780Z,70.49
2023-03-26T07:31:23.756Z,70.53
2023-03-26T07:32:23.832Z,69.45
2023-03-26T07:33:23.881Z,70.72
2023-03-26T07:34:23.790Z,73.68
2023-03-26T07:35:23.778Z,74.54
2023-03-26T07:36:23.739Z,71.51
2023-03-26T07:37:23.916Z,73.30
2023-03-26T07:38:23.678Z,73.34
2023-03-26T07:39:25.720Z,72.57
2023-03-26T07:40:23.716Z,71.89
2023-03-26T07:41:23.694Z,70.19
2023-03-26T07:42:23.838Z,73.85
2023-03-26T07:43:23.645Z,71.70
2023-03-26T07:44:23.609Z,72.66
2023-03-26T07:45:23.735Z,71.23
2023-03-26T07:46:23.632Z,71.67
2023-03-26T07:47:23.587Z,72.06
2023-03-26T07:48:23.590Z,68.59
2023-03-26T07:49:23.567Z,70.43
2023-03-26T07:50:23.573Z,72.81
2023-03-26T07:51:23.602Z,71.96
2023-03-26T07:52:23.545Z,74.59
2023-03-26T07:53:23.540Z,75.17
2023-03-26T07:54:23.584Z,73.94
2023-03-26T07:55:23.546Z,74.02
2023-03-26T07:56:23.627Z,73.92
2023-03-26T07:57:23.535Z,74.80
2023-03-26T07:58:23.703Z,73.04
2023-03-26T07:59:24.400Z,69.84
2023-03-26T08:00:23.486Z,72.22
2023-03-26T08:01:24.319Z,73.15
2023-03-26T08:02:23.482Z,69.65
2023-03-26T08:03:23.624Z,70.08
2023-03-26T08:04:25.991Z,73.04
2023-03-26T08:05:23.373Z,74.33
2023-03-26T08:06:23.420Z,71.33
2023-03-26T08:07:23.389Z,72.25
2023-03-26T08:08:25.083Z,71.56
2023-03-26T08:09:23.393Z,71.42
2023-03-26T08:10:23.373Z,73.28
2023-03-26T08:11:23.357Z,73.23
2023-03-26T08:12:23.370Z,72.02
2023-03-26T08:13:23.333Z,72.83
2023-03-26T08:14:23.299Z,71.82
2023-03-26T08:15:23.289Z,70.26
2023-03-26T08:16:23.427Z,72.51
2023-03-26T08:17:23.356Z,73.61
2023-03-26T08:18:23.294Z,70.64
2023-03-26T08:19:23.249Z,71.14
2023-03-26T08:20:23.286Z,74.25
2023-03-26T08:21:23.249Z,73.22
2023-03-26T08:22:23.241Z,71.95
2023-03-26T08:23:23.261Z,73.09
2023-03-26T08:24:23.243Z,71.32
2023-03-26T08:25:23.188Z,72.85
2023-03-26T08:26:23.214Z,70.58
2023-03-26T08:27:23.169Z,71.31
2023-03-26T08:28:24.189Z,73.09
2023-03-26T08:29:23.119Z,70.49
2023-03-26T08:30:23.156Z,70.75
2023-03-26T08:31:23.167Z,73.96
2023-03-26T08:32:23.132Z,73.57
2023-03-26T08:33:23.162Z,73.18
2023-03-26T08:34:23.114Z,70.53
2023-03-26T08:35:24.773Z,72.96
2023-03-26T08:36:32.906Z,73.95
2023-03-26T08:37:24.213Z,74.18
2023-03-26T08:38:23.255Z,71.81
2023-03-26T08:39:23.336Z,73.62
2023-03-26T08:40:24.399Z,72.59
2023-03-26T08:41:23.332Z,74.21
2023-03-26T08:42:23.369Z,72.87
2023-03-26T08:43:23.384Z,71.94
2023-03-26T08:44:23.505Z,72.33
2023-03-26T08:45:23.285Z,73.74
2023-03-26T08:46:23.613Z,73.29
2023-03-26T08:47:23.597Z,73.17
2023-03-26T08:48:23.464Z,71.58
2023-03-26T08:49:25.507Z,69.94
2023-03-26T08:50:23.116Z,70.48
2023-03-26T08:51:23.852Z,73.89
2023-03-26T08:52:23.024Z,71.98
2023-03-26T08:53:23.253Z,71.96
2023-03-26T08:54:23.048Z,74.33
2023-03-26T08:55:23.117Z,70.86
2023-03-26T08:56:23.371Z,73.33
2023-03-26T08:57:23.534Z,72.23
2023-03-26T08:58:24.242Z,72.44
2023-03-26T08:59:23.261Z,72.46
2023-03-26T09:00:23.209Z,73.28
2023-03-26T09:01:23.088Z,73.19
2023-03-26T09:02:22.958Z,73.68
2023-03-26T09:03:22.875Z,73.66
2023-03-26T09:04:23.147Z,74.27
2023-03-26T09:05:23.107Z,71.48
2023-03-26T09:06:24.790Z,72.23
2023-03-26T09:07:22.922Z,72.48
2023-03-26T09:08:22.995Z,74.42
2023-03-26T09:09:23.152Z,72.64
2023-03-26T09:10:23.205Z,74.98
2023-03-26T09:11:23.047Z,74.27
2023-03-26T09:12:24.936Z,72.77
2023-03-26T09:14:24.145Z,72.66
2023-03-26T09:15:23.173Z,74.77
2023-03-26T09:16:23.019Z,74.05
2023-03-26T09:17:23.223Z,73.11
2023-03-26T09:18:22.782Z,71.64
2023-03-26T09:19:22.888Z,75.05
2023-03-26T09:20:22.893Z,75.37
2023-03-26T09:21:22.750Z,72.16
2023-03-26T09:22:22.985Z,72.68
2023-03-26T09:23:22.773Z,72.10
2023-03-26T09:24:22.650Z,72.95
2023-03-26T09:25:23.317Z,73.08
2023-03-26T09:26:22.797Z,74.81
2023-03-26T09:27:22.521Z,74.91
2023-03-26T09:28:22.530Z,75.67
2023-03-26T09:29:22.696Z,72.23
2023-03-26T09:30:22.607Z,72.93
2023-03-26T09:31:23.470Z,74.69
2023-03-26T09:32:22.567Z,74.16
2023-03-26T09:33:22.519Z,73.70
2023-03-26T09:34:22.521Z,74.07
2023-03-26T09:35:22.551Z,72.90
2023-03-26T09:36:22.533Z,72.23
2023-03-26T09:37:22.567Z,72.56
2023-03-26T09:38:22.721Z,74.48
2023-03-26T09:39:22.584Z,72.30
2023-03-26T09:40:22.397Z,73.92
2023-03-26T09:41:22.549Z,74.49
2023-03-26T09:42:22.389Z,75.28
2023-03-26T09:43:22.629Z,74.08
2023-03-26T09:44:22.366Z,73.95
2023-03-26T09:45:22.385Z,73.33
2023-03-26T09:46:22.534Z,73.26
2023-03-26T09:47:22.453Z,72.38
2023-03-26T09:48:22.336Z,75.11
2023-03-26T09:49:22.353Z,71.05
2023-03-26T09:50:22.373Z,72.19
2023-03-26T09:51:22.270Z,73.49
2023-03-26T09:52:22.274Z,72.74
2023-03-26T09:53:22.278Z,74.48
2023-03-26T09:54:58.761Z,73.64
2023-03-26T09:55:24.731Z,71.77
2023-03-26T09:56:25.124Z,72.82
2023-03-26T09:57:22.611Z,72.73
2023-03-26T09:58:22.205Z,72.48
2023-03-26T09:59:22.184Z,74.40
2023-03-26T10:00:22.247Z,73.34
2023-03-26T10:01:22.195Z,71.01
2023-03-26T10:02:22.369Z,75.21
2023-03-26T10:03:25.635Z,75.28
2023-03-26T10:04:22.166Z,74.54
2023-03-26T10:05:22.175Z,74.55
2023-03-26T10:06:22.128Z,74.60
2023-03-26T10:07:22.126Z,73.48
2023-03-26T10:08:22.281Z,75.01
2023-03-26T10:09:22.319Z,71.81
2023-03-26T10:10:22.084Z,73.42
2023-03-26T10:11:22.046Z,74.05
2023-03-26T10:12:22.399Z,75.03
2023-03-26T10:13:22.067Z,74.58
2023-03-26T10:14:22.116Z,74.05
2023-03-26T10:15:23.960Z,73.78
2023-03-26T10:16:22.123Z,72.34
2023-03-26T10:17:22.029Z,72.56
2023-03-26T10:18:26.980Z,74.85
2023-03-26T10:19:24.181Z,73.92
2023-03-26T10:20:21.995Z,73.21
2023-03-26T10:21:23.612Z,73.22
2023-03-26T10:22:22.283Z,71.52
2023-03-26T10:23:21.970Z,73.11
2023-03-26T10:24:22.075Z,71.45
2023-03-26T10:25:22.471Z,75.03
2023-03-26T10:26:23.613Z,72.62
2023-03-26T10:27:23.056Z,73.00
2023-03-26T10:28:21.902Z,72.55
2023-03-26T10:29:21.910Z,72.88
2023-03-26T10:30:21.919Z,74.27
2023-03-26T10:31:21.942Z,73.95
2023-03-26T10:32:21.854Z,73.76
2023-03-26T10:33:23.378Z,73.77
2023-03-26T10:34:29.450Z,72.97
2023-03-26T10:35:22.844Z,74.36
2023-03-26T10:36:21.844Z,72.10
2023-03-26T10:37:21.783Z,71.55
2023-03-26T10:38:23.094Z,74.01
2023-03-26T10:39:36.942Z,73.33
2023-03-26T10:40:22.768Z,75.58
2023-03-26T10:41:21.788Z,74.92
2023-03-26T10:42:21.720Z,73.22
2023-03-26T10:43:21.734Z,72.69
2023-03-26T10:44:21.750Z,71.87
2023-03-26T10:45:22.313Z,73.08
2023-03-26T10:46:21.808Z,73.29
2023-03-26T10:47:21.691Z,74.76
2023-03-26T10:48:21.681Z,74.82
2023-03-26T10:49:21.647Z,73.41
2023-03-26T10:50:23.162Z,73.96
2023-03-26T10:51:21.644Z,72.69
2023-03-26T10:52:21.657Z,73.42
2023-03-26T10:53:22.638Z,73.10
2023-03-26T10:54:21.647Z,74.98
2023-03-26T10:55:23.079Z,72.30
2023-03-26T10:56:21.593Z,74.12
2023-03-26T10:57:21.766Z,75.28
2023-03-26T10:58:21.610Z,73.50
2023-03-26T10:59:21.541Z,75.22
2023-03-26T11:00:21.559Z,75.80
2023-03-26T11:01:21.572Z,75.14
2023-03-26T11:02:29.006Z,73.39
2023-03-26T11:03:22.522Z,74.30
2023-03-26T11:04:21.556Z,73.71
2023-03-26T11:05:21.525Z,75.03
2023-03-26T11:06:21.501Z,74.39
2023-03-26T11:07:21.469Z,75.87
2023-03-26T11:08:21.520Z,75.24
2023-03-26T11:09:22.460Z,75.84
2023-03-26T11:10:21.482Z,74.23
2023-03-26T11:11:22.441Z,76.19
2023-03-26T11:12:26.416Z,75.93
2023-03-26T11:13:22.545Z,76.20
2023-03-26T11:14:33.778Z,73.27
2023-03-26T11:15:23.565Z,74.10
2023-03-26T11:16:21.552Z,73.05
2023-03-26T11:17:40.734Z,73.03
2023-03-26T11:18:22.964Z,74.25
2023-03-26T11:19:22.398Z,75.62
2023-03-26T11:20:21.728Z,76.12
2023-03-26T11:21:21.394Z,75.17
2023-03-26T11:22:21.354Z,74.60
2023-03-26T11:23:21.292Z,74.00
2023-03-26T11:24:21.308Z,76.16
2023-03-26T11:25:21.320Z,74.21
2023-03-26T11:26:21.302Z,76.03
2023-03-26T11:27:23.726Z,77.96
2023-03-26T11:28:22.278Z,76.08
2023-03-26T11:29:31.332Z,75.00
2023-03-26T11:30:22.608Z,75.13
2023-03-26T11:31:21.266Z,76.54
2023-03-26T11:32:21.505Z,76.76
2023-03-26T11:33:21.177Z,76.81
2023-03-26T11:34:21.330Z,73.65
2023-03-26T11:35:40.294Z,75.07
2023-03-26T11:36:22.478Z,75.90
2023-03-26T11:37:21.281Z,75.79
2023-03-26T11:38:21.163Z,76.58
2023-03-26T11:39:21.220Z,75.92
2023-03-26T11:40:21.149Z,77.21
2023-03-26T11:41:23.075Z,76.36
2023-03-26T11:42:21.095Z,74.40
2023-03-26T11:43:21.102Z,76.07
2023-03-26T11:44:21.096Z,77.14
2023-03-26T11:45:21.129Z,77.14
2023-03-26T11:46:21.102Z,76.15
2023-03-26T11:47:21.140Z,76.38
2023-03-26T11:48:21.102Z,74.84
2023-03-26T11:49:21.059Z,75.41
2023-03-26T11:50:21.048Z,76.30
2023-03-26T11:51:21.080Z,76.53
2023-03-26T11:52:21.095Z,76.94
2023-03-26T11:53:20.976Z,76.33
2023-03-26T11:54:20.996Z,75.83
2023-03-26T11:55:21.069Z,76.73
2023-03-26T11:56:21.035Z,74.43
2023-03-26T11:57:20.975Z,76.54
2023-03-26T11:58:20.920Z,77.69
2023-03-26T11:59:21.747Z,76.50
2023-03-26T12:00:21.953Z,75.82
2023-03-26T12:01:20.937Z,76.04
2023-03-26T12:02:21.294Z,76.76
2023-03-26T12:03:21.996Z,76.97
2023-03-26T12:04:21.064Z,76.50
2023-03-26T12:05:20.897Z,76.35
2023-03-26T12:06:20.925Z,76.94
2023-03-26T12:07:20.834Z,75.05
2023-03-26T12:08:21.683Z,77.52
2023-03-26T12:09:20.837Z,75.84
2023-03-26T12:10:20.840Z,76.61
2023-03-26T12:11:20.856Z,77.36
2023-03-26T12:12:21.060Z,77.97
2023-03-26T12:13:21.321Z,75.38
2023-03-26T12:14:21.261Z,76.82
2023-03-26T12:15:20.784Z,77.01
2023-03-26T12:16:20.834Z,75.84
2023-03-26T12:17:20.761Z,77.86
2023-03-26T12:18:21.714Z,76.37
2023-03-26T12:19:20.685Z,77.28
2023-03-26T12:20:21.722Z,76.52
2023-03-26T12:21:20.703Z,76.60
2023-03-26T12:22:20.701Z,78.19
2023-03-26T12:23:20.641Z,76.26
2023-03-26T12:24:20.659Z,74.80
2023-03-26T12:25:20.712Z,77.62
2023-03-26T12:26:21.370Z,76.48
2023-03-26T12:27:20.624Z,77.37
2023-03-26T12:28:20.584Z,76.73
2023-03-26T12:29:20.632Z,76.41
2023-03-26T12:30:20.577Z,77.76
2023-03-26T12:31:20.657Z,76.70
2023-03-26T12:32:20.620Z,75.61
2023-03-26T12:33:20.543Z,75.26
2023-03-26T12:34:20.541Z,75.10
2023-03-26T12:35:20.506Z,75.87
2023-03-26T12:36:20.566Z,74.93
2023-03-26T12:37:20.489Z,75.42
2023-03-26T12:38:20.521Z,75.94
2023-03-26T12:40:07.450Z,76.72
2023-03-26T12:40:22.254Z,74.36
2023-03-26T12:42:36.681Z,74.36
2023-03-26T12:42:52.868Z,76.27
2023-03-26T12:44:52.619Z,76.97
2023-03-26T12:44:53.233Z,75.69
2023-03-26T12:45:21.542Z,75.81
2023-03-26T12:47:58.925Z,76.66
2023-03-26T12:47:59.157Z,76.04
2023-03-26T12:48:21.427Z,76.50
2023-03-26T12:49:20.462Z,75.62
2023-03-26T12:50:34.427Z,74.10
2023-03-26T12:51:21.620Z,75.51
2023-03-26T12:52:20.333Z,75.46
2023-03-26T12:53:20.349Z,76.22